Time;durP1;ratioP1;P1;durP2;ratioP2;P2;SDS_P1;SDS_P2;PMS_P1;PMS_P2;Temp;Humidity;BMP_temperature;BMP_pressure;BME280_temperature;BME280_humidity;BME280_pressure;Samples;Min_cycle;Max_cycle;Signal;HPM_P1;HPM_P2
2022/05/31 00:11:00;;;;;;;;;;;;;;;5.93;100.00;95176.41;5036265;28;20040;-76
2022/05/31 00:13:27;;;;;;;10.35;5.43;;;;;;;5.96;100.00;95165.50;5032466;28;19928;-75
2022/05/31 00:15:53;;;;;;;11.98;5.72;;;;;;;6.04;100.00;95175.50;5033108;28;20090;-76
2022/05/31 00:18:18;;;;;;;10.95;5.55;;;;;;;6.00;100.00;95171.81;5033439;28;20105;-75
2022/05/31 00:20:44;;;;;;;8.70;5.50;;;;;;;6.03;100.00;95176.56;5031792;28;20037;-75
2022/05/31 00:23:10;;;;;;;8.77;5.55;;;;;;;6.00;100.00;95171.03;5027648;28;20033;-75
2022/05/31 00:25:40;;;;;;;9.32;5.13;;;;;;;6.05;100.00;95179.69;5025699;28;20037;-75
2022/05/31 00:28:06;;;;;;;8.07;4.90;;;;;;;5.93;100.00;95181.63;5021919;28;20495;-75
2022/05/31 00:30:32;;;;;;;10.90;5.20;;;;;;;5.82;100.00;95169.53;5027621;28;20042;-75
2022/05/31 00:33:00;;;;;;;14.82;5.57;;;;;;;5.84;100.00;95168.25;5017358;28;20049;-75
2022/05/31 00:35:33;;;;;;;6.55;4.43;;;;;;;5.98;100.00;95178.34;5029023;28;20037;-75
2022/05/31 00:38:00;;;;;;;15.45;5.10;;;;;;;6.02;100.00;95177.59;5029814;28;20041;-76
2022/05/31 00:40:29;;;;;;;9.73;4.63;;;;;;;6.06;100.00;95176.06;5027167;28;20033;-76
2022/05/31 00:43:10;;;;;;;8.02;5.00;;;;;;;6.00;100.00;95171.81;5026376;28;20056;-76
2022/05/31 00:45:37;;;;;;;7.10;4.43;;;;;;;6.03;100.00;95165.31;5022141;28;20117;-76
2022/05/31 00:48:05;;;;;;;8.10;5.07;;;;;;;6.09;100.00;95164.31;5025855;28;20045;-76
2022/05/31 00:50:36;;;;;;;14.25;4.80;;;;;;;5.94;100.00;95172.78;5025021;28;20112;-76
2022/05/31 00:53:07;;;;;;;7.75;4.60;;;;;;;5.90;100.00;95182.13;5025161;28;20042;-75
2022/05/31 00:55:42;;;;;;;7.90;4.50;;;;;;;5.85;100.00;95171.66;5029147;28;20045;-76
2022/05/31 00:58:14;;;;;;;8.90;4.63;;;;;;;5.82;100.00;95172.13;5024575;28;20049;-75
2022/05/31 01:00:41;;;;;;;6.97;4.63;;;;;;;5.86;100.00;95165.38;5027327;28;20033;-75
2022/05/31 01:03:08;;;;;;;9.18;4.75;;;;;;;5.87;100.00;95172.19;5023695;28;20045;-75
2022/05/31 01:05:34;;;;;;;7.10;4.55;;;;;;;6.04;100.00;95178.13;5027587;28;20056;-74
2022/05/31 01:08:00;;;;;;;8.65;4.70;;;;;;;6.01;100.00;95173.38;5028837;28;20045;-75
2022/05/31 01:10:26;;;;;;;7.00;4.05;;;;;;;5.96;100.00;95170.72;5027093;28;20037;-74
2022/05/31 01:12:52;;;;;;;8.88;4.28;;;;;;;5.92;100.00;95164.41;5023843;28;20037;-75
2022/05/31 01:15:19;;;;;;;7.25;4.10;;;;;;;5.88;100.00;95173.78;5027900;28;20304;-75
2022/05/31 01:17:45;;;;;;;7.47;4.28;;;;;;;5.87;100.00;95172.19;5023188;28;20469;-75
2022/05/31 01:20:21;;;;;;;6.57;4.07;;;;;;;5.87;100.00;95159.13;5016835;28;20045;-75
2022/05/31 01:22:53;;;;;;;9.82;4.07;;;;;;;5.82;100.00;95169.53;5027217;28;20499;-75
2022/05/31 01:25:22;;;;;;;7.30;4.40;;;;;;;5.81;100.00;95167.97;5024594;28;20046;-75
2022/05/31 01:28:15;;;;;;;8.57;4.90;;;;;;;5.73;100.00;95151.72;5027009;28;20053;-75
2022/05/31 01:30:45;;;;;;;8.20;4.88;;;;;;;5.81;100.00;95167.97;5024601;28;20109;-75
2022/05/31 01:33:23;;;;;;;9.10;4.75;;;;;;;5.81;100.00;95162.75;5019556;28;20140;-75
2022/05/31 01:35:49;;;;;;;7.20;4.05;;;;;;;5.91;100.00;95168.06;5024085;28;20397;-75
2022/05/31 01:38:24;;;;;;;6.70;4.13;;;;;;;5.87;100.00;95166.97;5027660;28;20062;-75
2022/05/31 01:41:00;;;;;;;6.80;4.43;;;;;;;5.88;100.00;95147.66;5024801;28;20072;-75
2022/05/31 01:43:26;;;;;;;6.88;4.00;;;;;;;5.89;100.00;95151.84;5030808;28;20037;-75
2022/05/31 01:45:55;;;;;;;9.30;4.43;;;;;;;5.84;100.00;95151.78;5027994;28;20414;-75
2022/05/31 01:48:23;;;;;;;6.65;4.28;;;;;;;5.93;100.00;95144.31;5027469;28;20041;-75
2022/05/31 01:50:49;;;;;;;7.55;4.35;;;;;;;5.94;100.00;95138.81;5020381;28;20041;-75
2022/05/31 01:53:16;;;;;;;6.53;4.32;;;;;;;5.84;100.00;95130.91;5025884;28;20091;-75
2022/05/31 01:55:43;;;;;;;6.97;4.45;;;;;;;5.90;100.00;95135.13;5028119;28;20037;-75
2022/05/31 01:58:17;;;;;;;6.57;3.92;;;;;;;5.85;100.00;95132.50;5028608;28;20057;-75
2022/05/31 02:00:43;;;;;;;7.82;4.30;;;;;;;5.88;100.00;95132.00;5016271;28;20042;-75
2022/05/31 02:03:10;;;;;;;8.57;4.68;;;;;;;5.87;100.00;95135.63;5028315;28;20041;-75
2022/05/31 02:05:44;;;;;;;6.80;4.25;;;;;;;5.86;100.00;95134.03;5028148;28;20041;-75
2022/05/31 02:08:10;;;;;;;11.00;4.40;;;;;;;5.89;100.00;95138.78;5026739;28;20095;-75
2022/05/31 02:10:35;;;;;;;7.57;4.28;;;;;;;5.88;100.00;95130.16;5020145;28;20795;-75
2022/05/31 02:13:01;;;;;;;6.18;4.13;;;;;;;5.77;100.00;95130.31;5023619;28;20076;-75
2022/05/31 02:15:27;;;;;;;6.63;4.22;;;;;;;5.79;100.00;95133.47;5027981;28;20833;-75
2022/05/31 02:17:52;;;;;;;6.95;4.00;;;;;;;5.73;100.00;95136.03;5025023;28;20073;-75
2022/05/31 02:20:18;;;;;;;7.72;4.22;;;;;;;5.73;100.00;95130.81;5027155;28;20275;-75
2022/05/31 02:22:43;;;;;;;6.25;4.05;;;;;;;5.70;100.00;95133.13;5024749;28;20045;-74
2022/05/31 02:25:09;;;;;;;9.30;4.30;;;;;;;5.70;100.00;95133.94;5028627;28;20653;-74
2022/05/31 02:27:35;;;;;;;6.57;4.18;;;;;;;5.72;100.00;95133.69;5026703;28;20041;-74
2022/05/31 02:30:01;;;;;;;5.70;3.80;;;;;;;5.77;100.00;95135.53;5019558;28;20099;-74
2022/05/31 02:32:27;;;;;;;7.45;3.80;;;;;;;5.80;100.00;95135.03;5027896;28;20388;-75
2022/05/31 02:34:53;;;;;;;7.93;4.13;;;;;;;5.70;100.00;95136.53;5023432;28;20038;-75
2022/05/31 02:37:20;;;;;;;7.03;3.95;;;;;;;5.68;100.00;95135.97;5030669;28;20125;-74
2022/05/31 02:39:46;;;;;;;7.55;4.03;;;;;;;5.72;100.00;95144.91;5031886;28;20034;-74
2022/05/31 02:42:13;;;;;;;5.85;3.92;;;;;;;5.81;100.00;95147.06;5025784;28;20090;-74
2022/05/31 02:44:38;;;;;;;5.55;3.78;;;;;;;5.71;100.00;95143.31;5031522;28;20131;-75
2022/05/31 02:47:05;;;;;;;5.78;3.70;;;;;;;5.55;100.00;95146.84;5023311;28;20084;-75
2022/05/31 02:49:31;;;;;;;5.22;3.40;;;;;;;5.46;100.00;95140.47;5031813;28;20049;-74
2022/05/31 02:51:58;;;;;;;6.18;4.00;;;;;;;5.51;100.00;95143.13;5028316;28;20041;-74
2022/05/31 02:54:25;;;;;;;7.10;4.10;;;;;;;5.55;100.00;95149.44;5031495;28;20670;-74
2022/05/31 02:56:51;;;;;;;6.45;3.65;;;;;;;5.50;100.00;95155.41;5021783;28;20045;-75
2022/05/31 02:59:16;;;;;;;7.13;4.03;;;;;;;5.46;100.00;95151.72;5026844;28;20037;-74
2022/05/31 03:01:43;;;;;;;5.85;3.80;;;;;;;5.55;100.00;95155.44;5030069;28;20117;-74
2022/05/31 03:04:10;;;;;;;8.60;4.10;;;;;;;5.51;100.00;95153.56;5030945;28;20625;-74
2022/05/31 03:06:36;;;;;;;8.30;4.10;;;;;;;5.51;100.00;95164.00;5029329;28;20657;-74
2022/05/31 03:09:02;;;;;;;7.78;4.38;;;;;;;5.56;100.00;95161.47;5030515;28;20137;-74
2022/05/31 03:11:33;;;;;;;7.75;4.28;;;;;;;5.54;100.00;95160.91;5029523;28;20037;-74
2022/05/31 03:14:07;;;;;;;6.35;4.10;;;;;;;5.62;100.00;95155.25;5025278;28;20120;-74
2022/05/31 03:16:38;;;;;;;6.47;4.00;;;;;;;5.59;100.00;95145.31;5030779;28;20093;-73
2022/05/31 03:19:06;;;;;;;8.32;4.05;;;;;;;5.68;100.00;95154.25;5030882;28;20045;-73
2022/05/31 03:21:38;;;;;;;8.32;4.03;;;;;;;5.66;100.00;95151.13;5028962;28;20495;-75
2022/05/31 03:24:11;;;;;;;7.68;4.30;;;;;;;5.66;100.00;95164.19;5023358;28;20041;-75
2022/05/31 03:26:40;;;;;;;5.75;3.78;;;;;;;5.61;100.00;95158.13;5029197;28;20087;-74
2022/05/31 03:29:07;;;;;;;6.45;4.22;;;;;;;5.64;100.00;95163.63;5029627;28;20053;-75
2022/05/31 03:31:32;;;;;;;7.70;4.13;;;;;;;5.62;100.00;95162.31;5030913;28;20168;-75
2022/05/31 03:33:58;;;;;;;7.70;4.18;;;;;;;5.64;100.00;95168.84;5031090;28;20132;-75
2022/05/31 03:36:24;;;;;;;6.50;4.15;;;;;;;5.61;100.00;95158.88;5030723;28;20578;-75
2022/05/31 03:38:49;;;;;;;7.25;4.40;;;;;;;5.61;100.00;95164.13;5029027;28;20465;-75
2022/05/31 03:41:14;;;;;;;7.38;4.30;;;;;;;5.62;100.00;95165.69;5043865;28;20041;-75
2022/05/31 03:43:42;;;;;;;7.95;3.92;;;;;;;5.65;100.00;95169.66;5029668;28;20045;-74
2022/05/31 03:46:12;;;;;;;7.15;4.38;;;;;;;5.74;100.00;95173.38;5029936;28;20052;-74
2022/05/31 03:48:38;;;;;;;5.88;3.90;;;;;;;5.75;100.00;95168.94;5029274;28;20042;-74
2022/05/31 03:51:06;;;;;;;7.07;4.00;;;;;;;5.81;100.00;95162.75;5019614;28;20116;-74
2022/05/31 03:53:32;;;;;;;7.90;4.43;;;;;;;5.79;100.00;95159.56;5026076;28;20045;-74
2022/05/31 03:56:01;;;;;;;9.00;4.65;;;;;;;5.91;100.00;95160.22;5027974;28;20578;-76
2022/05/31 03:58:26;;;;;;;7.25;4.28;;;;;;;5.84;100.00;95162.25;5023249;28;20052;-76
2022/05/31 04:00:52;;;;;;;6.72;4.32;;;;;;;5.94;100.00;95161.56;5026225;28;20042;-76
2022/05/31 04:03:18;;;;;;;8.15;4.28;;;;;;;6.02;100.00;95164.53;5030325;28;20046;-75
2022/05/31 04:05:45;;;;;;;6.82;4.47;;;;;;;6.07;100.00;95169.78;5025201;28;20083;-75
2022/05/31 04:08:12;;;;;;;6.65;4.05;;;;;;;6.05;100.00;95164.03;5025897;28;20048;-75
2022/05/31 04:10:40;;;;;;;10.10;4.47;;;;;;;6.07;100.00;95172.38;5028901;28;20045;-76
2022/05/31 04:13:06;;;;;;;8.27;4.22;;;;;;;6.18;100.00;95182.94;5022425;28;20132;-76
2022/05/31 04:15:33;;;;;;;8.30;4.20;;;;;;;6.24;100.00;95176.72;5028040;28;20112;-74
2022/05/31 04:17:59;;;;;;;6.90;4.65;;;;;;;6.38;100.00;95162.19;5026219;28;20052;-74
2022/05/31 04:20:26;;;;;;;7.80;4.38;;;;;;;6.43;100.00;95178.94;5021598;28;20050;-74
2022/05/31 04:22:51;;;;;;;7.75;4.80;;;;;;;6.46;100.00;95175.84;5044332;28;20044;-75
2022/05/31 04:25:17;;;;;;;8.68;4.78;;;;;;;6.57;100.00;95180.09;5029907;28;20411;-75
2022/05/31 04:27:42;;;;;;;9.35;5.18;;;;;;;6.61;100.00;95178.56;5030014;28;20033;-74
2022/05/31 04:30:08;;;;;;;15.68;5.47;;;;;;;6.68;100.00;95186.16;5028527;28;20107;-74
2022/05/31 04:32:34;;;;;;;6.80;4.85;;;;;;;6.74;100.00;95191.19;5029222;28;20095;-74
2022/05/31 04:35:01;;;;;;;8.90;5.38;;;;;;;6.83;100.00;95185.47;5029436;28;20454;-74
2022/05/31 04:37:28;;;;;;;8.93;4.95;;;;;;;6.93;100.00;95182.91;5026687;28;20045;-74
2022/05/31 04:39:54;;;;;;;7.97;4.88;;;;;;;7.07;100.00;95191.09;5024913;28;20151;-74
2022/05/31 04:42:19;;;;;;;8.95;5.22;;;;;;;7.15;100.00;95189.81;5023971;28;20061;-74
2022/05/31 04:44:45;;;;;;;9.27;5.25;;;;;;;7.11;100.00;95184.28;5027913;28;20037;-74
2022/05/31 04:47:11;;;;;;;7.78;4.75;;;;;;;7.21;100.00;95194.84;5029282;28;20083;-75
2022/05/31 04:49:36;;;;;;;9.02;5.30;;;;;;;7.19;100.00;95193.50;5024870;28;20677;-75
2022/05/31 04:52:02;;;;;;;6.93;4.50;;;;;;;7.25;100.00;95195.09;5028638;28;20087;-74
2022/05/31 04:54:30;;;;;;;8.23;5.13;;;;;;;7.31;100.00;95194.06;5029361;28;20489;-74
2022/05/31 04:56:59;;;;;;;14.00;5.20;;;;;;;7.41;100.00;95198.56;5023742;28;20427;-75
2022/05/31 04:59:26;;;;;;;10.18;5.15;;;;;;;7.21;100.00;95188.78;5028932;28;20164;-75
2022/05/31 05:01:51;;;;;;;8.75;5.22;;;;;;;7.31;100.00;95194.06;5027313;28;20047;-75
2022/05/31 05:04:17;;;;;;;10.20;5.63;;;;;;;7.28;100.00;95197.19;5028477;28;20044;-75
2022/05/31 05:06:42;;;;;;;10.77;5.55;;;;;;;7.43;100.00;95197.28;5027684;28;20571;-75
2022/05/31 05:09:08;;;;;;;10.70;5.55;;;;;;;7.53;100.00;95190.47;5028900;28;20045;-75
2022/05/31 05:11:34;;;;;;;13.98;5.95;;;;;;;7.63;100.00;95201.00;5024347;28;20212;-75
2022/05/31 05:13:59;;;;;;;10.05;5.68;;;;;;;7.85;100.00;95197.38;5023283;28;20098;-75
2022/05/31 05:16:26;;;;;;;9.40;5.15;;;;;;;7.97;100.00;95211.03;5029095;28;20037;-75
2022/05/31 05:18:52;;;;;;;7.30;5.05;;;;;;;7.85;100.00;95208.66;5029011;28;20049;-76
2022/05/31 05:21:18;;;;;;;8.65;5.40;;;;;;;7.86;100.00;95209.41;5027098;28;20049;-74
2022/05/31 05:23:44;;;;;;;10.55;5.90;;;;;;;7.90;100.00;95205.25;5029412;28;20046;-75
2022/05/31 05:26:11;;;;;;;12.02;6.03;;;;;;;7.94;100.00;95195.81;5030179;28;20333;-75
2022/05/31 05:31:30;;;;;;;9.55;5.70;;;;;;;8.20;100.00;95201.09;5028034;28;20060;-75
2022/05/31 05:33:58;;;;;;;8.10;5.50;;;;;;;8.17;100.00;95205.00;5027885;28;20048;-75
2022/05/31 05:36:24;;;;;;;10.60;5.53;;;;;;;8.51;100.00;95209.00;5024965;28;20573;-75
2022/05/31 05:38:50;;;;;;;9.40;5.65;;;;;;;8.52;100.00;95200.06;5026599;28;20048;-75
2022/05/31 05:41:17;;;;;;;8.68;5.30;;;;;;;8.71;100.00;95198.50;5023139;28;20616;-75
2022/05/31 05:43:42;;;;;;;11.52;5.45;;;;;;;8.80;100.00;95202.13;5025650;28;20038;-75
2022/05/31 05:46:15;;;;;;;8.80;4.82;;;;;;;8.87;100.00;95203.72;5027214;28;20072;-74
2022/05/31 05:48:42;;;;;;;9.68;5.10;;;;;;;9.04;100.00;95196.31;5028745;28;20096;-75
2022/05/31 05:51:26;;;;;;;7.32;4.80;;;;;;;9.17;100.00;95194.97;5027090;28;20123;-75
2022/05/31 05:53:53;;;;;;;11.90;4.93;;;;;;;9.33;100.00;95198.34;5028752;28;20407;-75
2022/05/31 05:56:20;;;;;;;9.23;4.38;;;;;;;9.36;100.00;95197.78;5019049;28;20049;-75
2022/05/31 05:58:46;;;;;;;13.15;4.78;;;;;;;9.47;100.00;95204.56;5026997;28;20042;-75
2022/05/31 06:01:21;;;;;;;8.02;4.90;;;;;;;9.57;100.00;95202.94;5020812;28;20048;-75
2022/05/31 06:04:00;;;;;;;7.68;4.55;;;;;;;9.70;100.00;95202.38;5028585;28;20046;-75
2022/05/31 06:06:31;;;;;;;7.88;4.97;;;;;;;9.83;100.00;95201.78;5025856;28;20072;-74
2022/05/31 06:09:05;;;;;;;9.25;4.55;;;;;;;9.81;100.00;95198.66;5019541;28;20100;-74
2022/05/31 06:11:31;;;;;;;9.88;5.18;;;;;;;10.11;100.00;95202.13;5028138;28;20038;-74
2022/05/31 06:13:59;;;;;;;7.78;4.40;;;;;;;10.22;100.00;95190.47;5027127;28;20052;-75
2022/05/31 06:16:31;;;;;;;10.88;4.28;;;;;;;10.54;98.83;95194.47;5031626;28;20040;-75
2022/05/31 06:19:10;;;;;;;12.20;5.32;;;;;;;10.95;94.45;95203.03;5026399;28;20048;-74
2022/05/31 06:21:36;;;;;;;6.30;4.20;;;;;;;11.02;96.21;95203.50;5028151;28;20049;-75
2022/05/31 06:24:01;;;;;;;6.32;4.22;;;;;;;11.06;94.96;95209.78;5031042;28;20041;-75
2022/05/31 06:26:29;;;;;;;6.75;4.30;;;;;;;11.11;94.98;95212.38;5030795;28;20038;-75
2022/05/31 06:28:55;;;;;;;6.78;3.90;;;;;;;11.27;94.38;95211.13;5030002;28;20077;-74
2022/05/31 06:31:20;;;;;;;6.90;4.03;;;;;;;11.20;93.22;95197.50;5031807;28;20124;-74
2022/05/31 06:33:45;;;;;;;5.75;3.80;;;;;;;11.30;93.69;95203.75;5031019;28;20041;-75
2022/05/31 06:36:11;;;;;;;6.55;3.78;;;;;;;11.18;93.65;95194.38;5031936;28;20058;-75
2022/05/31 06:38:37;;;;;;;6.75;3.63;;;;;;;11.12;94.79;95192.88;5024532;28;20513;-75
2022/05/31 06:41:04;;;;;;;6.03;3.47;;;;;;;11.03;95.63;95194.53;5031359;28;20047;-75
2022/05/31 06:43:30;;;;;;;6.43;3.67;;;;;;;11.21;91.42;95191.19;5017562;28;20087;-75
2022/05/31 06:45:56;;;;;;;7.60;3.83;;;;;;;11.48;89.36;95195.09;5029000;28;20120;-75
2022/05/31 06:48:22;;;;;;;5.68;3.85;;;;;;;11.50;90.96;95192.94;5030936;28;20051;-75
2022/05/31 06:50:47;;;;;;;12.88;3.83;;;;;;;11.73;87.91;95198.47;5028028;28;20461;-77
2022/05/31 06:58:43;;;;;;;7.30;3.55;;;;;;;11.63;91.89;95195.97;5023915;28;20072;-76
2022/05/31 07:01:09;;;;;;;7.22;3.70;;;;;;;11.98;89.52;95191.31;5032056;28;20049;-76
2022/05/31 07:03:34;;;;;;;6.18;3.78;;;;;;;12.14;87.38;95184.75;5031925;28;20054;-77
2022/05/31 07:06:00;;;;;;;8.02;3.90;;;;;;;12.34;86.35;95193.41;5034188;28;20053;-77
2022/05/31 07:08:26;;;;;;;6.55;3.67;;;;;;;12.37;84.46;95192.84;5027970;28;20049;-74
2022/05/31 07:10:51;;;;;;;8.15;3.60;;;;;;;12.38;84.23;95189.13;5031485;28;20060;-77
2022/05/31 07:13:20;;;;;;;7.78;3.92;;;;;;;12.28;86.01;95185.59;5026398;28;20052;-78
2022/05/31 07:15:46;;;;;;;6.03;3.65;;;;;;;12.22;88.26;95186.72;5032561;28;20514;-76
2022/05/31 07:18:11;;;;;;;12.50;3.75;;;;;;;12.14;87.30;95192.69;5032090;28;20042;-77
2022/05/31 07:20:37;;;;;;;6.80;3.30;;;;;;;12.48;86.29;95194.25;5028171;28;20479;-78
2022/05/31 07:23:02;;;;;;;7.50;3.75;;;;;;;12.83;85.48;95197.38;5035256;28;20784;-77
2022/05/31 07:25:28;;;;;;;8.07;3.60;;;;;;;12.75;84.98;95198.03;5033331;28;20049;-77
2022/05/31 07:27:53;;;;;;;6.90;3.83;;;;;;;12.67;87.36;95188.94;5033047;28;20056;-77
2022/05/31 07:30:19;;;;;;;10.05;3.97;;;;;;;12.63;83.52;95186.09;5030421;28;20052;-77
2022/05/31 07:32:44;;;;;;;7.13;4.07;;;;;;;12.57;86.23;95181.97;5026829;28;20106;-77
2022/05/31 07:35:11;;;;;;;12.23;3.72;;;;;;;12.55;86.63;95189.38;5032370;28;20388;-77
2022/05/31 07:37:36;;;;;;;6.20;3.40;;;;;;;12.49;87.44;95185.25;5021113;28;20539;-77
2022/05/31 07:40:04;;;;;;;6.65;3.80;;;;;;;12.54;87.03;95182.56;5031614;28;20040;-77
2022/05/31 07:42:29;;;;;;;8.40;3.50;;;;;;;12.99;85.31;95182.81;5031077;28;20049;-77
2022/05/31 07:44:56;;;;;;;5.70;3.30;;;;;;;13.10;84.10;95172.06;5030160;28;20120;-78
2022/05/31 07:47:22;;;;;;;5.82;3.60;;;;;;;13.30;83.10;95171.69;5030263;28;20491;-77
2022/05/31 07:49:48;;;;;;;6.35;3.40;;;;;;;13.40;83.26;95175.22;5031240;28;20053;-77
2022/05/31 07:52:14;;;;;;;7.93;3.30;;;;;;;13.24;83.32;95183.41;5022371;28;20115;-77
2022/05/31 07:54:39;;;;;;;9.15;3.50;;;;;;;13.23;80.33;95176.56;5031606;28;20037;-77
2022/05/31 07:57:05;;;;;;;6.93;3.70;;;;;;;13.29;82.32;95164.81;5031096;28;20052;-76
2022/05/31 07:59:35;;;;;;;4.95;3.50;;;;;;;13.40;81.36;95177.84;5030201;28;20097;-77
2022/05/31 08:02:00;;;;;;;9.13;3.60;;;;;;;13.33;81.18;95178.22;5029039;28;20042;-77
2022/05/31 08:04:26;;;;;;;8.20;3.28;;;;;;;13.42;80.70;95178.34;5029758;28;20622;-77
2022/05/31 08:06:53;;;;;;;6.45;3.58;;;;;;;13.85;78.84;95170.06;5031997;28;20038;-77
2022/05/31 08:09:20;;;;;;;5.82;3.20;;;;;;;13.95;79.10;95169.84;5028013;28;20565;-78
2022/05/31 08:11:46;;;;;;;5.78;3.45;;;;;;;13.94;80.21;95173.56;5026237;28;20115;-77
2022/05/31 08:14:12;;;;;;;6.30;3.80;;;;;;;13.99;76.99;95170.81;5027353;28;20494;-77
2022/05/31 08:16:39;;;;;;;11.35;3.67;;;;;;;14.42;74.75;95171.41;5030312;28;20034;-81
2022/05/31 08:19:05;;;;;;;5.63;3.55;;;;;;;14.46;75.39;95164.44;5028796;28;20061;-77
2022/05/31 08:21:32;;;;;;;9.13;3.90;;;;;;;14.40;78.67;95163.00;5028387;28;20037;-76
2022/05/31 08:24:07;;;;;;;8.23;3.50;;;;;;;14.37;73.61;95170.44;5024320;28;20047;-78
2022/05/31 08:26:33;;;;;;;10.00;3.92;;;;;;;14.52;72.01;95163.22;5031329;28;20042;-78
2022/05/31 08:28:58;;;;;;;5.30;3.20;;;;;;;14.38;73.87;95161.44;5024693;28;20473;-76
2022/05/31 08:31:31;;;;;;;7.18;3.50;;;;;;;14.57;70.98;95141.91;5030702;28;20052;-77
2022/05/31 08:33:58;;;;;;;7.80;3.47;;;;;;;14.84;66.58;95156.09;5023093;28;20678;-77
2022/05/31 08:36:23;;;;;;;6.30;3.50;;;;;;;15.03;62.74;95159.28;5020000;28;20678;-76
2022/05/31 08:38:49;;;;;;;5.35;3.10;;;;;;;15.07;65.30;95154.94;5030821;28;20046;-76
2022/05/31 08:41:25;;;;;;;7.72;4.15;;;;;;;15.39;63.31;95152.25;5028695;28;20495;-76
2022/05/31 08:43:50;;;;;;;6.57;3.80;;;;;;;15.37;60.61;95147.25;5023033;28;20048;-77
2022/05/31 08:46:55;;;;;;;7.93;3.65;;;;;;;15.10;65.62;95142.16;5030593;28;20046;-78
2022/05/31 08:52:26;;;;;;;7.18;4.15;;;;;;;15.27;66.75;95134.28;5027987;28;20037;-77
2022/05/31 08:57:54;;;;;;;5.88;3.10;;;;;;;15.61;66.10;95130.13;5023643;28;20494;-76
2022/05/31 09:00:31;;;;;;;8.23;3.40;;;;;;;16.05;64.48;95148.75;5028901;28;20065;-76
2022/05/31 09:03:07;;;;;;;6.00;4.05;;;;;;;16.32;63.04;95142.34;5029181;28;20038;-76
2022/05/31 09:05:42;;;;;;;7.40;3.90;;;;;;;15.96;62.98;95135.50;5023918;28;20080;-76
2022/05/31 09:08:18;;;;;;;8.98;4.03;;;;;;;16.10;64.54;95128.16;5027696;28;20060;-76
2022/05/31 09:10:51;;;;;;;5.88;3.63;;;;;;;16.23;65.77;95128.28;5028155;28;20052;-76
2022/05/31 09:13:22;;;;;;;6.20;3.75;;;;;;;16.13;62.98;95125.94;5017290;28;20038;-76
2022/05/31 09:15:56;;;;;;;6.40;3.40;;;;;;;16.23;63.23;95128.28;5026799;28;20400;-77
2022/05/31 09:18:39;;;;;;;8.32;4.05;;;;;;;16.63;59.81;95120.06;5023942;28;20099;-76
2022/05/31 09:21:17;;;;;;;6.22;3.80;;;;;;;16.61;60.98;95119.63;5042056;28;20052;-76
2022/05/31 09:23:45;;;;;;;7.38;3.47;;;;;;;16.50;63.61;95115.75;5052627;28;20033;-76
2022/05/31 09:26:46;;;;;;;5.50;3.25;;;;;;;16.34;63.81;95113.59;5055909;28;20077;-75
2022/05/31 09:29:21;;;;;;;5.18;3.47;;;;;;;16.62;65.36;95110.53;5055811;28;20032;-75
2022/05/31 09:32:13;;;;;;;5.65;3.42;;;;;;;16.87;63.53;95113.44;5055826;28;20029;-75
2022/05/31 09:34:55;;;;;;;5.13;2.97;;;;;;;17.16;60.56;95114.59;5054955;28;20034;-74
2022/05/31 09:37:29;;;;;;;5.05;2.90;;;;;;;17.42;60.01;95117.09;5053835;28;20033;-75
2022/05/31 09:40:31;;;;;;;7.13;3.28;;;;;;;17.35;60.64;95112.28;5050165;28;20067;-77
2022/05/31 09:43:10;;;;;;;6.32;3.33;;;;;;;17.42;58.60;95111.78;5043064;28;20049;-76
2022/05/31 09:45:41;;;;;;;6.85;2.80;;;;;;;17.45;58.37;95111.91;5044898;28;20022;-74
2022/05/31 09:48:07;;;;;;;5.50;2.65;;;;;;;17.88;59.29;95112.69;5057505;28;20034;-76
2022/05/31 09:50:33;;;;;;;6.07;2.70;;;;;;;17.93;57.94;95114.41;5039123;28;20056;-77
2022/05/31 09:52:59;;;;;;;4.88;3.13;;;;;;;17.71;58.66;95108.28;5032735;28;20156;-77
2022/05/31 09:58:26;;;;;;;4.30;2.85;;;;;;;18.41;54.25;95104.28;5032806;28;20041;-77
2022/05/31 10:01:01;;;;;;;6.22;2.75;;;;;;;18.36;56.48;95099.94;5030928;28;20486;-77
2022/05/31 10:03:45;;;;;;;6.80;3.05;;;;;;;18.13;56.75;95100.31;5026210;28;20502;-77
2022/05/31 10:06:20;;;;;;;4.13;3.17;;;;;;;18.28;56.47;95098.16;5023676;28;20088;-77
2022/05/31 10:08:47;;;;;;;5.60;2.90;;;;;;;18.42;54.96;95087.97;5023635;28;20060;-77
2022/05/31 10:11:34;;;;;;;5.40;2.90;;;;;;;18.77;54.20;95098.22;5023420;28;20055;-75
2022/05/31 10:14:20;;;;;;;5.45;2.58;;;;;;;18.74;52.01;95093.56;5021797;28;20092;-77
2022/05/31 10:16:49;;;;;;;6.85;2.70;;;;;;;19.19;53.77;95098.06;5030215;28;20060;-77
2022/05/31 10:19:30;;;;;;;6.18;2.72;;;;;;;19.41;53.62;95092.59;5022758;28;20041;-77
2022/05/31 10:22:13;;;;;;;4.63;3.03;;;;;;;19.70;51.55;95088.88;5025945;28;20475;-77
2022/05/31 10:24:38;;;;;;;5.10;2.72;;;;;;;19.82;51.07;95086.19;5029325;28;20060;-77
2022/05/31 10:27:13;;;;;;;9.18;2.75;;;;;;;20.08;51.44;95076.97;5028853;28;20426;-77
2022/05/31 10:29:51;;;;;;;5.75;3.03;;;;;;;20.25;50.55;95082.00;5027905;28;20045;-77
2022/05/31 10:32:43;;;;;;;5.30;2.95;;;;;;;20.28;48.71;95066.41;5026774;28;20407;-78
2022/05/31 10:35:12;;;;;;;5.07;2.78;;;;;;;20.80;48.90;95065.44;5021148;28;20056;-74
2022/05/31 10:38:01;;;;;;;8.13;3.10;;;;;;;21.40;47.73;95061.81;5027076;28;20037;-76
2022/05/31 10:40:47;;;;;;;4.35;2.72;;;;;;;21.94;47.82;95054.91;5029639;28;20193;-76
2022/05/31 10:43:19;;;;;;;12.63;3.08;;;;;;;22.16;49.49;95058.75;5012587;28;20076;-77
2022/05/31 10:45:45;;;;;;;5.43;3.08;;;;;;;22.92;45.27;95039.38;5029029;28;20041;-76
2022/05/31 10:48:10;;;;;;;5.22;3.20;;;;;;;22.98;44.39;95048.66;5026763;28;20047;-76
2022/05/31 10:50:54;;;;;;;5.60;3.10;;;;;;;23.32;43.87;95048.03;5026595;28;20326;-77
2022/05/31 10:53:50;;;;;;;5.05;3.17;;;;;;;23.05;41.92;95047.22;5023856;28;20045;-79
2022/05/31 10:56:24;;;;;;;6.07;3.50;;;;;;;23.00;43.96;95046.41;5030132;28;20041;-77
2022/05/31 10:59:00;;;;;;;5.60;3.10;;;;;;;23.39;41.85;95039.28;5027975;28;20045;-76
2022/05/31 11:01:34;;;;;;;10.68;4.85;;;;;;;23.01;45.58;95047.97;5030358;28;20038;-75
2022/05/31 11:04:23;;;;;;;4.43;3.00;;;;;;;23.51;42.27;95039.06;5011914;28;20103;-74
2022/05/31 11:07:15;;;;;;;8.75;3.30;;;;;;;23.13;45.07;95032.78;5027808;28;20056;-75
2022/05/31 11:13:12;;;;;;;5.28;2.80;;;;;;;22.50;43.34;95029.53;5025766;28;20037;-74
2022/05/31 11:15:55;;;;;;;7.80;3.05;;;;;;;23.63;42.87;95030.78;5033240;28;20072;-74
2022/05/31 11:18:46;;;;;;;6.65;3.13;;;;;;;23.95;39.29;95038.47;5021555;28;20045;-74
2022/05/31 11:21:18;;;;;;;6.00;2.90;;;;;;;23.81;42.84;95032.91;5028659;28;20659;-75
2022/05/31 11:23:49;;;;;;;4.65;2.90;;;;;;;24.22;42.05;95024.91;5024628;28;20454;-73
2022/05/31 11:26:24;;;;;;;5.60;3.08;;;;;;;24.97;37.41;95014.06;5026656;28;20048;-76
2022/05/31 11:29:08;;;;;;;10.02;2.92;;;;;;;24.66;36.44;95026.88;5027465;28;20054;-75
2022/05/31 11:31:55;;;;;;;4.07;2.90;;;;;;;24.62;35.83;95026.06;5028750;28;20073;-75
2022/05/31 11:34:32;;;;;;;8.90;3.00;;;;;;;23.93;36.68;95018.47;5031127;28;20099;-76
2022/05/31 11:37:15;;;;;;;10.20;2.88;;;;;;;23.71;38.09;95018.22;5017406;28;20052;-74
2022/05/31 11:40:01;;;;;;;;;;;;;;;23.42;38.60;95015.19;5026110;28;20072;-76
2022/05/31 11:42:45;;;;;;;8.13;3.05;;;;;;;22.76;38.81;95019.97;5024935;28;19975;-76
2022/05/31 11:45:39;;;;;;;5.13;3.05;;;;;;;24.09;36.39;95020.94;5022215;28;20038;-76
2022/05/31 11:48:28;;;;;;;7.75;2.90;;;;;;;24.47;36.01;95017.09;5029588;28;20041;-74
2022/05/31 11:51:25;;;;;;;5.15;2.95;;;;;;;24.70;35.67;95022.31;5029164;28;20049;-76
2022/05/31 11:54:28;;;;;;;4.88;2.83;;;;;;;24.37;35.64;95021.22;5028024;28;20045;-77
2022/05/31 11:56:59;;;;;;;5.20;2.97;;;;;;;24.01;36.06;95015.50;5028168;28;20048;-74
2022/05/31 11:59:33;;;;;;;4.60;2.67;;;;;;;24.01;36.31;95015.50;5025576;28;20038;-75
2022/05/31 12:02:12;;;;;;;9.32;3.00;;;;;;;24.04;37.82;95020.13;5030181;28;20491;-75
2022/05/31 12:04:45;;;;;;;5.13;2.95;;;;;;;24.06;36.26;95016.31;5030397;28;20102;-75
2022/05/31 12:07:18;;;;;;;6.80;2.60;;;;;;;23.69;36.97;95005.16;5022140;28;20044;-75
2022/05/31 12:10:10;;;;;;;5.18;2.67;;;;;;;23.69;36.29;95010.53;5027319;28;20051;-73
2022/05/31 12:12:36;;;;;;;5.57;2.80;;;;;;;23.27;37.77;95006.16;5024001;28;20140;-76
2022/05/31 12:15:13;;;;;;;7.82;2.97;;;;;;;23.38;39.62;95005.53;5029374;28;20037;-76
2022/05/31 12:17:49;;;;;;;5.97;2.70;;;;;;;23.39;39.42;95009.75;5030271;28;20404;-76